sensor_id;sensor_type;location;lat;lon;timestamp;temperature;humidity
22212;DHT22;11275;52.488;13.462;2022-09-03T00:01:28;15.90;94.80
22212;DHT22;11275;52.488;13.462;2022-09-03T00:04:02;15.90;94.80
22212;DHT22;11275;52.488;13.462;2022-09-03T00:06:37;15.90;94.90
22212;DHT22;11275;52.488;13.462;2022-09-03T00:14:31;15.70;95.20
22212;DHT22;11275;52.488;13.462;2022-09-03T00:17:03;15.70;95.30
22212;DHT22;11275;52.488;13.462;2022-09-03T00:19:39;15.70;95.30
22212;DHT22;11275;52.488;13.462;2022-09-03T00:22:12;15.60;95.30
22212;DHT22;11275;52.488;13.462;2022-09-03T00:24:40;15.60;95.30
22212;DHT22;11275;52.488;13.462;2022-09-03T00:27:12;15.70;95.40
22212;DHT22;11275;52.488;13.462;2022-09-03T00:29:45;15.70;95.30
22212;DHT22;11275;52.488;13.462;2022-09-03T00:32:20;15.70;95.50
22212;DHT22;11275;52.488;13.462;2022-09-03T00:34:55;15.60;95.60
22212;DHT22;11275;52.488;13.462;2022-09-03T00:37:22;15.60;95.60
22212;DHT22;11275;52.488;13.462;2022-09-03T00:39:48;15.60;95.60
22212;DHT22;11275;52.488;13.462;2022-09-03T00:45:19;15.50;95.70
22212;DHT22;11275;52.488;13.462;2022-09-03T00:57:18;15.40;96.10
22212;DHT22;11275;52.488;13.462;2022-09-03T01:10:45;15.30;96.30
22212;DHT22;11275;52.488;13.462;2022-09-03T01:16:20;15.30;96.30
22212;DHT22;11275;52.488;13.462;2022-09-03T01:24:45;15.30;96.60
22212;DHT22;11275;52.488;13.462;2022-09-03T01:27:24;15.20;96.50
22212;DHT22;11275;52.488;13.462;2022-09-03T01:30:05;15.20;96.40
22212;DHT22;11275;52.488;13.462;2022-09-03T01:35:33;15.10;96.60
22212;DHT22;11275;52.488;13.462;2022-09-03T01:40:53;15.00;96.60
22212;DHT22;11275;52.488;13.462;2022-09-03T01:46:16;15.00;96.80
22212;DHT22;11275;52.488;13.462;2022-09-03T01:51:27;15.10;97.00
22212;DHT22;11275;52.488;13.462;2022-09-03T01:54:14;15.00;96.90
22212;DHT22;11275;52.488;13.462;2022-09-03T01:57:00;15.00;96.80
22212;DHT22;11275;52.488;13.462;2022-09-03T01:59:36;15.10;96.90
22212;DHT22;11275;52.488;13.462;2022-09-03T02:02:12;15.00;96.90
22212;DHT22;11275;52.488;13.462;2022-09-03T02:05:02;15.00;97.20
22212;DHT22;11275;52.488;13.462;2022-09-03T02:07:40;14.90;97.30
22212;DHT22;11275;52.488;13.462;2022-09-03T02:10:10;14.90;97.30
22212;DHT22;11275;52.488;13.462;2022-09-03T02:12:38;14.90;97.30
22212;DHT22;11275;52.488;13.462;2022-09-03T02:15:11;14.90;97.40
22212;DHT22;11275;52.488;13.462;2022-09-03T02:17:37;14.80;97.80
22212;DHT22;11275;52.488;13.462;2022-09-03T02:20:07;14.80;97.60
22212;DHT22;11275;52.488;13.462;2022-09-03T02:22:36;14.80;97.50
22212;DHT22;11275;52.488;13.462;2022-09-03T02:25:03;14.80;97.60
22212;DHT22;11275;52.488;13.462;2022-09-03T02:27:30;14.80;97.50
22212;DHT22;11275;52.488;13.462;2022-09-03T02:29:56;14.80;97.70
22212;DHT22;11275;52.488;13.462;2022-09-03T02:32:22;14.80;97.80
22212;DHT22;11275;52.488;13.462;2022-09-03T02:34:48;14.80;97.60
22212;DHT22;11275;52.488;13.462;2022-09-03T02:37:15;14.80;97.70
22212;DHT22;11275;52.488;13.462;2022-09-03T02:39:42;14.80;97.70
22212;DHT22;11275;52.488;13.462;2022-09-03T02:42:10;14.70;97.90
22212;DHT22;11275;52.488;13.462;2022-09-03T02:44:43;14.60;98.00
22212;DHT22;11275;52.488;13.462;2022-09-03T02:47:11;14.50;98.00
22212;DHT22;11275;52.488;13.462;2022-09-03T02:49:36;14.60;98.10
22212;DHT22;11275;52.488;13.462;2022-09-03T02:52:05;14.60;98.10
22212;DHT22;11275;52.488;13.462;2022-09-03T02:54:37;14.60;98.00
22212;DHT22;11275;52.488;13.462;2022-09-03T02:57:08;14.50;98.10
22212;DHT22;11275;52.488;13.462;2022-09-03T02:59:35;14.40;98.20
22212;DHT22;11275;52.488;13.462;2022-09-03T03:02:02;14.40;98.30
22212;DHT22;11275;52.488;13.462;2022-09-03T03:04:29;14.40;98.30
22212;DHT22;11275;52.488;13.462;2022-09-03T03:06:55;14.40;98.20
22212;DHT22;11275;52.488;13.462;2022-09-03T03:09:21;14.40;98.30
22212;DHT22;11275;52.488;13.462;2022-09-03T03:11:46;14.40;98.30
22212;DHT22;11275;52.488;13.462;2022-09-03T03:14:14;14.40;98.30
22212;DHT22;11275;52.488;13.462;2022-09-03T03:16:39;14.40;98.30
22212;DHT22;11275;52.488;13.462;2022-09-03T03:19:05;14.40;98.60
22212;DHT22;11275;52.488;13.462;2022-09-03T03:21:30;14.40;98.30
22212;DHT22;11275;52.488;13.462;2022-09-03T03:23:56;14.50;98.30
22212;DHT22;11275;52.488;13.462;2022-09-03T03:26:22;14.40;98.30
22212;DHT22;11275;52.488;13.462;2022-09-03T03:28:49;14.40;98.20
22212;DHT22;11275;52.488;13.462;2022-09-03T03:31:20;14.30;98.40
22212;DHT22;11275;52.488;13.462;2022-09-03T03:34:04;14.30;98.50
22212;DHT22;11275;52.488;13.462;2022-09-03T03:36:32;14.20;98.60
22212;DHT22;11275;52.488;13.462;2022-09-03T03:38:59;14.20;98.60
22212;DHT22;11275;52.488;13.462;2022-09-03T03:41:28;14.30;98.70
22212;DHT22;11275;52.488;13.462;2022-09-03T03:43:57;14.30;98.60
22212;DHT22;11275;52.488;13.462;2022-09-03T03:46:24;14.30;98.80
22212;DHT22;11275;52.488;13.462;2022-09-03T03:48:53;14.20;99.00
22212;DHT22;11275;52.488;13.462;2022-09-03T03:51:18;14.10;99.10
22212;DHT22;11275;52.488;13.462;2022-09-03T03:53:44;14.10;99.10
22212;DHT22;11275;52.488;13.462;2022-09-03T03:56:12;14.20;99.20
22212;DHT22;11275;52.488;13.462;2022-09-03T03:58:39;14.20;99.00
22212;DHT22;11275;52.488;13.462;2022-09-03T04:01:12;14.30;99.10
22212;DHT22;11275;52.488;13.462;2022-09-03T04:03:39;14.30;99.10
22212;DHT22;11275;52.488;13.462;2022-09-03T04:06:05;14.30;99.00
22212;DHT22;11275;52.488;13.462;2022-09-03T04:08:34;14.30;99.00
22212;DHT22;11275;52.488;13.462;2022-09-03T04:11:02;14.30;99.00
22212;DHT22;11275;52.488;13.462;2022-09-03T04:13:32;14.30;99.00
22212;DHT22;11275;52.488;13.462;2022-09-03T04:16:03;14.30;99.00
22212;DHT22;11275;52.488;13.462;2022-09-03T04:18:29;14.20;99.20
22212;DHT22;11275;52.488;13.462;2022-09-03T04:21:04;14.20;99.20
22212;DHT22;11275;52.488;13.462;2022-09-03T04:23:34;14.00;99.40
22212;DHT22;11275;52.488;13.462;2022-09-03T04:26:00;14.00;99.40
22212;DHT22;11275;52.488;13.462;2022-09-03T04:28:26;14.10;99.40
22212;DHT22;11275;52.488;13.462;2022-09-03T04:30:52;14.00;99.60
22212;DHT22;11275;52.488;13.462;2022-09-03T04:33:18;14.00;99.90
22212;DHT22;11275;52.488;13.462;2022-09-03T04:35:44;13.90;99.90
22212;DHT22;11275;52.488;13.462;2022-09-03T04:38:09;13.90;99.90
22212;DHT22;11275;52.488;13.462;2022-09-03T04:40:35;13.90;99.90
22212;DHT22;11275;52.488;13.462;2022-09-03T04:43:02;14.00;99.90
22212;DHT22;11275;52.488;13.462;2022-09-03T04:45:28;13.90;99.90
22212;DHT22;11275;52.488;13.462;2022-09-03T04:47:59;13.90;99.90
22212;DHT22;11275;52.488;13.462;2022-09-03T04:50:26;14.00;99.90
22212;DHT22;11275;52.488;13.462;2022-09-03T04:52:53;14.00;99.90
22212;DHT22;11275;52.488;13.462;2022-09-03T04:55:21;14.00;99.90
22212;DHT22;11275;52.488;13.462;2022-09-03T04:57:47;13.90;99.90
22212;DHT22;11275;52.488;13.462;2022-09-03T05:00:15;13.90;99.90
22212;DHT22;11275;52.488;13.462;2022-09-03T05:02:43;13.90;99.90
22212;DHT22;11275;52.488;13.462;2022-09-03T05:05:11;14.00;99.90
22212;DHT22;11275;52.488;13.462;2022-09-03T05:07:37;13.90;99.90
22212;DHT22;11275;52.488;13.462;2022-09-03T05:10:11;14.00;99.90
22212;DHT22;11275;52.488;13.462;2022-09-03T05:12:43;14.00;99.90
22212;DHT22;11275;52.488;13.462;2022-09-03T05:15:09;13.90;99.90
22212;DHT22;11275;52.488;13.462;2022-09-03T05:17:35;13.90;99.90
22212;DHT22;11275;52.488;13.462;2022-09-03T05:20:03;13.90;99.90
22212;DHT22;11275;52.488;13.462;2022-09-03T05:22:28;13.90;99.90
22212;DHT22;11275;52.488;13.462;2022-09-03T05:24:54;14.00;99.90
22212;DHT22;11275;52.488;13.462;2022-09-03T05:27:20;14.00;99.90
22212;DHT22;11275;52.488;13.462;2022-09-03T05:29:46;14.00;99.90
22212;DHT22;11275;52.488;13.462;2022-09-03T05:32:12;14.00;99.90
22212;DHT22;11275;52.488;13.462;2022-09-03T05:34:38;14.10;99.90
22212;DHT22;11275;52.488;13.462;2022-09-03T05:37:04;14.10;99.90
22212;DHT22;11275;52.488;13.462;2022-09-03T05:39:29;14.00;99.90
22212;DHT22;11275;52.488;13.462;2022-09-03T05:41:55;14.10;99.90
22212;DHT22;11275;52.488;13.462;2022-09-03T05:44:20;13.90;99.90
22212;DHT22;11275;52.488;13.462;2022-09-03T05:46:48;14.00;99.90
22212;DHT22;11275;52.488;13.462;2022-09-03T05:49:16;14.00;99.90
22212;DHT22;11275;52.488;13.462;2022-09-03T05:51:41;14.10;99.90
22212;DHT22;11275;52.488;13.462;2022-09-03T05:54:08;14.10;99.90
22212;DHT22;11275;52.488;13.462;2022-09-03T05:56:36;14.20;99.90
22212;DHT22;11275;52.488;13.462;2022-09-03T05:59:05;14.20;99.90
22212;DHT22;11275;52.488;13.462;2022-09-03T06:01:44;14.20;99.90
22212;DHT22;11275;52.488;13.462;2022-09-03T06:04:12;14.20;99.90
22212;DHT22;11275;52.488;13.462;2022-09-03T06:06:43;14.30;99.90
22212;DHT22;11275;52.488;13.462;2022-09-03T06:09:11;14.50;99.90
22212;DHT22;11275;52.488;13.462;2022-09-03T06:11:39;14.60;99.90
22212;DHT22;11275;52.488;13.462;2022-09-03T06:14:06;14.60;99.90
22212;DHT22;11275;52.488;13.462;2022-09-03T06:16:35;14.70;99.90
22212;DHT22;11275;52.488;13.462;2022-09-03T06:19:02;14.50;99.90
22212;DHT22;11275;52.488;13.462;2022-09-03T06:21:28;14.60;99.90
22212;DHT22;11275;52.488;13.462;2022-09-03T06:23:55;14.60;99.90
22212;DHT22;11275;52.488;13.462;2022-09-03T06:26:22;14.70;99.90
22212;DHT22;11275;52.488;13.462;2022-09-03T06:28:48;14.70;99.90
22212;DHT22;11275;52.488;13.462;2022-09-03T06:31:15;14.80;99.90
22212;DHT22;11275;52.488;13.462;2022-09-03T06:33:41;14.80;99.90
22212;DHT22;11275;52.488;13.462;2022-09-03T06:36:10;14.90;99.90
22212;DHT22;11275;52.488;13.462;2022-09-03T06:38:37;15.10;99.90
22212;DHT22;11275;52.488;13.462;2022-09-03T06:41:08;15.20;99.90
22212;DHT22;11275;52.488;13.462;2022-09-03T06:43:36;15.30;99.90
22212;DHT22;11275;52.488;13.462;2022-09-03T06:48:33;15.50;99.90
22212;DHT22;11275;52.488;13.462;2022-09-03T06:51:10;15.40;99.90
22212;DHT22;11275;52.488;13.462;2022-09-03T06:53:41;15.60;99.90
22212;DHT22;11275;52.488;13.462;2022-09-03T06:56:12;15.70;99.90
22212;DHT22;11275;52.488;13.462;2022-09-03T06:58:39;15.60;99.90
22212;DHT22;11275;52.488;13.462;2022-09-03T07:03:35;15.50;99.90
22212;DHT22;11275;52.488;13.462;2022-09-03T07:06:06;15.50;99.90
22212;DHT22;11275;52.488;13.462;2022-09-03T07:08:32;15.50;99.90
22212;DHT22;11275;52.488;13.462;2022-09-03T07:10:59;15.50;99.90
22212;DHT22;11275;52.488;13.462;2022-09-03T07:13:27;15.50;99.90
22212;DHT22;11275;52.488;13.462;2022-09-03T07:16:07;15.60;99.90
22212;DHT22;11275;52.488;13.462;2022-09-03T07:18:33;15.70;99.90
22212;DHT22;11275;52.488;13.462;2022-09-03T07:21:00;15.70;99.90
22212;DHT22;11275;52.488;13.462;2022-09-03T07:23:27;15.70;99.90
22212;DHT22;11275;52.488;13.462;2022-09-03T07:25:58;15.80;99.90
22212;DHT22;11275;52.488;13.462;2022-09-03T07:28:25;15.90;99.90
22212;DHT22;11275;52.488;13.462;2022-09-03T07:30:52;16.00;99.90
22212;DHT22;11275;52.488;13.462;2022-09-03T07:33:17;16.10;99.90
22212;DHT22;11275;52.488;13.462;2022-09-03T07:35:44;16.10;99.90
22212;DHT22;11275;52.488;13.462;2022-09-03T07:38:10;16.20;99.90
22212;DHT22;11275;52.488;13.462;2022-09-03T07:40:36;16.30;99.90
22212;DHT22;11275;52.488;13.462;2022-09-03T07:43:04;16.50;99.90
22212;DHT22;11275;52.488;13.462;2022-09-03T07:45:31;16.60;99.90
22212;DHT22;11275;52.488;13.462;2022-09-03T07:47:58;16.70;99.90
22212;DHT22;11275;52.488;13.462;2022-09-03T07:50:24;16.90;99.90
22212;DHT22;11275;52.488;13.462;2022-09-03T07:52:59;17.00;99.90
22212;DHT22;11275;52.488;13.462;2022-09-03T07:55:25;17.10;99.90
22212;DHT22;11275;52.488;13.462;2022-09-03T07:57:57;17.30;99.90
22212;DHT22;11275;52.488;13.462;2022-09-03T08:00:24;17.40;99.90
22212;DHT22;11275;52.488;13.462;2022-09-03T08:02:53;17.40;99.90
22212;DHT22;11275;52.488;13.462;2022-09-03T08:05:19;17.50;99.90
22212;DHT22;11275;52.488;13.462;2022-09-03T08:07:46;17.40;99.90
22212;DHT22;11275;52.488;13.462;2022-09-03T08:10:13;17.30;99.90
22212;DHT22;11275;52.488;13.462;2022-09-03T08:12:39;17.30;99.90
22212;DHT22;11275;52.488;13.462;2022-09-03T08:15:05;17.30;99.90
22212;DHT22;11275;52.488;13.462;2022-09-03T08:17:31;17.30;99.90
22212;DHT22;11275;52.488;13.462;2022-09-03T08:19:56;17.50;99.90
22212;DHT22;11275;52.488;13.462;2022-09-03T08:22:23;17.50;99.90
22212;DHT22;11275;52.488;13.462;2022-09-03T08:24:50;17.60;99.90
22212;DHT22;11275;52.488;13.462;2022-09-03T08:27:15;17.50;99.90
22212;DHT22;11275;52.488;13.462;2022-09-03T08:29:41;17.50;99.90
22212;DHT22;11275;52.488;13.462;2022-09-03T08:32:07;17.50;99.90
22212;DHT22;11275;52.488;13.462;2022-09-03T08:34:33;17.50;99.90
22212;DHT22;11275;52.488;13.462;2022-09-03T08:36:58;17.60;99.70
22212;DHT22;11275;52.488;13.462;2022-09-03T08:39:25;17.60;99.40
22212;DHT22;11275;52.488;13.462;2022-09-03T08:52:44;17.60;99.90
22212;DHT22;11275;52.488;13.462;2022-09-03T08:58:05;17.70;99.80
22212;DHT22;11275;52.488;13.462;2022-09-03T09:00:48;17.70;99.10
22212;DHT22;11275;52.488;13.462;2022-09-03T09:14:18;17.90;98.90
22212;DHT22;11275;52.488;13.462;2022-09-03T09:22:16;18.10;98.60
22212;DHT22;11275;52.488;13.462;2022-09-03T09:24:46;18.10;98.10
22212;DHT22;11275;52.488;13.462;2022-09-03T09:27:14;18.20;98.30
22212;DHT22;11275;52.488;13.462;2022-09-03T09:29:43;18.20;98.20
22212;DHT22;11275;52.488;13.462;2022-09-03T09:32:11;18.30;97.90
22212;DHT22;11275;52.488;13.462;2022-09-03T09:34:39;18.30;98.00
22212;DHT22;11275;52.488;13.462;2022-09-03T09:37:09;18.40;97.90
22212;DHT22;11275;52.488;13.462;2022-09-03T09:39:36;18.40;97.80
22212;DHT22;11275;52.488;13.462;2022-09-03T09:42:06;18.50;97.80
22212;DHT22;11275;52.488;13.462;2022-09-03T09:44:41;18.60;97.90
22212;DHT22;11275;52.488;13.462;2022-09-03T09:47:12;18.60;97.70
22212;DHT22;11275;52.488;13.462;2022-09-03T09:52:12;18.70;97.10
22212;DHT22;11275;52.488;13.462;2022-09-03T09:54:40;18.80;96.90
22212;DHT22;11275;52.488;13.462;2022-09-03T09:57:12;18.90;94.90
22212;DHT22;11275;52.488;13.462;2022-09-03T09:59:41;18.90;95.10
22212;DHT22;11275;52.488;13.462;2022-09-03T10:02:13;18.90;95.20
22212;DHT22;11275;52.488;13.462;2022-09-03T10:04:44;19.10;94.90
22212;DHT22;11275;52.488;13.462;2022-09-03T10:07:28;19.10;94.60
22212;DHT22;11275;52.488;13.462;2022-09-03T10:10:00;19.20;95.00
22212;DHT22;11275;52.488;13.462;2022-09-03T10:12:31;19.20;94.40
22212;DHT22;11275;52.488;13.462;2022-09-03T10:18:05;19.30;92.00
22212;DHT22;11275;52.488;13.462;2022-09-03T10:28:23;19.40;92.10
22212;DHT22;11275;52.488;13.462;2022-09-03T10:37:46;19.30;92.40
22212;DHT22;11275;52.488;13.462;2022-09-03T10:50:33;20.10;91.80
22212;DHT22;11275;52.488;13.462;2022-09-03T10:53:06;20.20;91.70
22212;DHT22;11275;52.488;13.462;2022-09-03T11:01:02;20.40;90.00
22212;DHT22;11275;52.488;13.462;2022-09-03T11:03:45;20.40;88.20
22212;DHT22;11275;52.488;13.462;2022-09-03T11:06:22;20.60;89.20
22212;DHT22;11275;52.488;13.462;2022-09-03T11:09:34;20.70;88.40
22212;DHT22;11275;52.488;13.462;2022-09-03T11:12:27;20.70;86.60
22212;DHT22;11275;52.488;13.462;2022-09-03T11:15:08;20.60;85.70
22212;DHT22;11275;52.488;13.462;2022-09-03T11:17:46;20.70;85.70
22212;DHT22;11275;52.488;13.462;2022-09-03T11:20:22;20.80;82.40
22212;DHT22;11275;52.488;13.462;2022-09-03T11:22:52;20.70;83.20
22212;DHT22;11275;52.488;13.462;2022-09-03T11:25:20;20.80;84.70
22212;DHT22;11275;52.488;13.462;2022-09-03T11:27:55;20.90;84.70
22212;DHT22;11275;52.488;13.462;2022-09-03T11:33:22;21.10;84.90
22212;DHT22;11275;52.488;13.462;2022-09-03T11:36:05;21.00;85.00
22212;DHT22;11275;52.488;13.462;2022-09-03T11:38:31;20.90;85.50
22212;DHT22;11275;52.488;13.462;2022-09-03T11:41:21;21.00;86.30
22212;DHT22;11275;52.488;13.462;2022-09-03T11:43:48;21.10;86.30
22212;DHT22;11275;52.488;13.462;2022-09-03T11:48:51;21.40;85.50
22212;DHT22;11275;52.488;13.462;2022-09-03T11:51:37;21.40;84.30
22212;DHT22;11275;52.488;13.462;2022-09-03T11:56:31;21.20;82.50
22212;DHT22;11275;52.488;13.462;2022-09-03T12:01:33;21.10;79.00
22212;DHT22;11275;52.488;13.462;2022-09-03T12:04:03;21.10;79.80
22212;DHT22;11275;52.488;13.462;2022-09-03T12:21:07;21.40;76.20
22212;DHT22;11275;52.488;13.462;2022-09-03T12:26:21;21.60;78.40
22212;DHT22;11275;52.488;13.462;2022-09-03T12:28:53;21.70;77.10
22212;DHT22;11275;52.488;13.462;2022-09-03T12:33:59;21.80;77.10
22212;DHT22;11275;52.488;13.462;2022-09-03T12:36:42;21.90;75.50
22212;DHT22;11275;52.488;13.462;2022-09-03T12:39:12;22.00;76.50
22212;DHT22;11275;52.488;13.462;2022-09-03T12:41:45;22.00;76.60
22212;DHT22;11275;52.488;13.462;2022-09-03T12:44:11;22.00;75.50
22212;DHT22;11275;52.488;13.462;2022-09-03T12:46:37;22.10;75.30
22212;DHT22;11275;52.488;13.462;2022-09-03T12:49:05;22.30;75.70
22212;DHT22;11275;52.488;13.462;2022-09-03T12:51:40;22.40;76.10
22212;DHT22;11275;52.488;13.462;2022-09-03T12:54:09;22.40;73.80
22212;DHT22;11275;52.488;13.462;2022-09-03T12:56:50;22.30;73.10
22212;DHT22;11275;52.488;13.462;2022-09-03T12:59:18;22.30;72.50
22212;DHT22;11275;52.488;13.462;2022-09-03T13:01:51;22.20;73.30
22212;DHT22;11275;52.488;13.462;2022-09-03T13:04:24;22.20;74.20
22212;DHT22;11275;52.488;13.462;2022-09-03T13:09:39;21.80;72.30
22212;DHT22;11275;52.488;13.462;2022-09-03T13:12:09;21.80;74.70
22212;DHT22;11275;52.488;13.462;2022-09-03T13:14:47;21.90;74.80
22212;DHT22;11275;52.488;13.462;2022-09-03T13:26:34;21.60;74.10
22212;DHT22;11275;52.488;13.462;2022-09-03T13:29:24;21.50;76.10
22212;DHT22;11275;52.488;13.462;2022-09-03T13:32:02;21.30;75.90
22212;DHT22;11275;52.488;13.462;2022-09-03T13:37:21;21.50;76.60
22212;DHT22;11275;52.488;13.462;2022-09-03T13:39:57;21.70;76.10
22212;DHT22;11275;52.488;13.462;2022-09-03T13:47:51;22.10;74.30
22212;DHT22;11275;52.488;13.462;2022-09-03T13:53:39;22.40;72.30
22212;DHT22;11275;52.488;13.462;2022-09-03T13:56:18;22.40;72.60
22212;DHT22;11275;52.488;13.462;2022-09-03T13:58:59;22.20;73.00
22212;DHT22;11275;52.488;13.462;2022-09-03T14:05:12;22.00;72.40
22212;DHT22;11275;52.488;13.462;2022-09-03T14:08:03;21.90;72.20
22212;DHT22;11275;52.488;13.462;2022-09-03T14:13:21;22.00;73.10
22212;DHT22;11275;52.488;13.462;2022-09-03T14:16:02;22.00;74.00
22212;DHT22;11275;52.488;13.462;2022-09-03T14:19:11;21.90;73.50
22212;DHT22;11275;52.488;13.462;2022-09-03T14:21:45;21.80;72.10
22212;DHT22;11275;52.488;13.462;2022-09-03T14:24:25;21.80;74.30
22212;DHT22;11275;52.488;13.462;2022-09-03T14:26:55;21.70;72.30
22212;DHT22;11275;52.488;13.462;2022-09-03T14:29:29;21.70;74.00
22212;DHT22;11275;52.488;13.462;2022-09-03T14:39:54;22.10;74.20
22212;DHT22;11275;52.488;13.462;2022-09-03T15:01:38;22.60;69.40
22212;DHT22;11275;52.488;13.462;2022-09-03T15:04:17;22.50;70.40
22212;DHT22;11275;52.488;13.462;2022-09-03T15:31:21;22.80;68.30
22212;DHT22;11275;52.488;13.462;2022-09-03T15:34:04;22.70;69.70
22212;DHT22;11275;52.488;13.462;2022-09-03T15:36:40;22.70;69.90
22212;DHT22;11275;52.488;13.462;2022-09-03T15:39:30;22.80;69.90
22212;DHT22;11275;52.488;13.462;2022-09-03T15:42:07;22.80;69.40
22212;DHT22;11275;52.488;13.462;2022-09-03T15:44:40;22.90;69.80
22212;DHT22;11275;52.488;13.462;2022-09-03T15:47:11;23.00;69.40
22212;DHT22;11275;52.488;13.462;2022-09-03T15:50:05;23.10;68.30
22212;DHT22;11275;52.488;13.462;2022-09-03T15:52:59;23.20;69.00
22212;DHT22;11275;52.488;13.462;2022-09-03T15:55:37;23.30;69.30
22212;DHT22;11275;52.488;13.462;2022-09-03T15:58:30;23.30;66.80
22212;DHT22;11275;52.488;13.462;2022-09-03T16:01:25;23.30;67.00
22212;DHT22;11275;52.488;13.462;2022-09-03T16:03:55;23.20;67.30
22212;DHT22;11275;52.488;13.462;2022-09-03T16:06:29;23.00;66.30
22212;DHT22;11275;52.488;13.462;2022-09-03T16:09:17;22.80;67.70
22212;DHT22;11275;52.488;13.462;2022-09-03T16:14:42;22.40;67.90
22212;DHT22;11275;52.488;13.462;2022-09-03T16:17:24;22.30;68.70
22212;DHT22;11275;52.488;13.462;2022-09-03T16:19:54;22.30;69.60
22212;DHT22;11275;52.488;13.462;2022-09-03T16:22:26;22.20;69.80
22212;DHT22;11275;52.488;13.462;2022-09-03T16:25:06;22.20;70.20
22212;DHT22;11275;52.488;13.462;2022-09-03T16:30:09;22.10;70.70
22212;DHT22;11275;52.488;13.462;2022-09-03T16:38:18;22.20;71.50
22212;DHT22;11275;52.488;13.462;2022-09-03T17:10:54;21.70;73.90
22212;DHT22;11275;52.488;13.462;2022-09-03T17:24:46;21.70;75.90
22212;DHT22;11275;52.488;13.462;2022-09-03T17:31:04;21.60;75.00
22212;DHT22;11275;52.488;13.462;2022-09-03T17:36:28;21.40;75.90
22212;DHT22;11275;52.488;13.462;2022-09-03T17:39:17;21.30;75.70
22212;DHT22;11275;52.488;13.462;2022-09-03T17:41:51;21.30;75.90
22212;DHT22;11275;52.488;13.462;2022-09-03T17:52:50;21.00;78.10
22212;DHT22;11275;52.488;13.462;2022-09-03T18:03:28;20.80;78.40
22212;DHT22;11275;52.488;13.462;2022-09-03T18:06:00;20.80;78.40
22212;DHT22;11275;52.488;13.462;2022-09-03T18:11:37;20.80;77.40
22212;DHT22;11275;52.488;13.462;2022-09-03T18:14:23;20.70;77.70
22212;DHT22;11275;52.488;13.462;2022-09-03T18:17:08;20.60;78.00
22212;DHT22;11275;52.488;13.462;2022-09-03T18:19:41;20.60;77.60
22212;DHT22;11275;52.488;13.462;2022-09-03T18:22:48;20.60;76.80
22212;DHT22;11275;52.488;13.462;2022-09-03T18:25:34;20.60;76.70
22212;DHT22;11275;52.488;13.462;2022-09-03T18:28:30;20.50;76.60
22212;DHT22;11275;52.488;13.462;2022-09-03T18:31:16;20.50;76.60
22212;DHT22;11275;52.488;13.462;2022-09-03T18:34:02;20.50;76.90
22212;DHT22;11275;52.488;13.462;2022-09-03T18:36:47;20.60;76.90
22212;DHT22;11275;52.488;13.462;2022-09-03T18:39:31;20.60;76.50
22212;DHT22;11275;52.488;13.462;2022-09-03T18:42:21;20.50;76.90
22212;DHT22;11275;52.488;13.462;2022-09-03T19:00:32;20.50;77.10
22212;DHT22;11275;52.488;13.462;2022-09-03T19:03:39;20.50;77.30
22212;DHT22;11275;52.488;13.462;2022-09-03T19:06:36;20.50;76.90
22212;DHT22;11275;52.488;13.462;2022-09-03T19:15:38;20.40;77.30
22212;DHT22;11275;52.488;13.462;2022-09-03T19:21:47;20.40;78.10
22212;DHT22;11275;52.488;13.462;2022-09-03T19:24:32;20.30;78.60
22212;DHT22;11275;52.488;13.462;2022-09-03T19:34:16;20.30;78.90
22212;DHT22;11275;52.488;13.462;2022-09-03T19:46:35;20.20;79.70
22212;DHT22;11275;52.488;13.462;2022-09-03T19:55:11;20.10;80.10
22212;DHT22;11275;52.488;13.462;2022-09-03T19:58:00;20.10;79.40
22212;DHT22;11275;52.488;13.462;2022-09-03T20:00:45;20.20;79.80
22212;DHT22;11275;52.488;13.462;2022-09-03T20:03:29;20.20;80.70
22212;DHT22;11275;52.488;13.462;2022-09-03T20:06:15;20.10;79.50
22212;DHT22;11275;52.488;13.462;2022-09-03T20:09:07;20.10;79.60
22212;DHT22;11275;52.488;13.462;2022-09-03T20:11:54;20.10;79.60
22212;DHT22;11275;52.488;13.462;2022-09-03T20:14:21;20.10;79.30
22212;DHT22;11275;52.488;13.462;2022-09-03T20:17:01;20.00;80.00
22212;DHT22;11275;52.488;13.462;2022-09-03T20:36:05;20.00;79.90
22212;DHT22;11275;52.488;13.462;2022-09-03T20:41:35;20.00;80.00
22212;DHT22;11275;52.488;13.462;2022-09-03T20:55:20;19.80;79.90
22212;DHT22;11275;52.488;13.462;2022-09-03T21:00:24;19.70;80.10
22212;DHT22;11275;52.488;13.462;2022-09-03T21:03:22;19.70;80.30
22212;DHT22;11275;52.488;13.462;2022-09-03T21:11:18;19.60;80.80
22212;DHT22;11275;52.488;13.462;2022-09-03T21:16:53;19.50;81.90
22212;DHT22;11275;52.488;13.462;2022-09-03T21:25:07;19.50;82.20
22212;DHT22;11275;52.488;13.462;2022-09-03T21:27:41;19.50;82.20
22212;DHT22;11275;52.488;13.462;2022-09-03T21:30:12;19.50;82.00
22212;DHT22;11275;52.488;13.462;2022-09-03T21:33:03;19.50;82.20
22212;DHT22;11275;52.488;13.462;2022-09-03T21:35:32;19.50;82.30
22212;DHT22;11275;52.488;13.462;2022-09-03T21:38:19;19.50;81.80
22212;DHT22;11275;52.488;13.462;2022-09-03T21:43:38;19.50;81.60
22212;DHT22;11275;52.488;13.462;2022-09-03T21:46:08;19.40;81.90
22212;DHT22;11275;52.488;13.462;2022-09-03T21:48:41;19.40;81.50
22212;DHT22;11275;52.488;13.462;2022-09-03T21:51:30;19.40;81.70
22212;DHT22;11275;52.488;13.462;2022-09-03T21:54:07;19.40;81.80
22212;DHT22;11275;52.488;13.462;2022-09-03T21:56:52;19.40;81.70
22212;DHT22;11275;52.488;13.462;2022-09-03T22:02:29;19.40;81.80
22212;DHT22;11275;52.488;13.462;2022-09-03T22:04:56;19.40;82.30
22212;DHT22;11275;52.488;13.462;2022-09-03T22:18:33;19.20;81.50
22212;DHT22;11275;52.488;13.462;2022-09-03T22:23:54;19.20;82.10
22212;DHT22;11275;52.488;13.462;2022-09-03T22:34:28;19.10;82.20
22212;DHT22;11275;52.488;13.462;2022-09-03T22:37:02;19.10;81.60
22212;DHT22;11275;52.488;13.462;2022-09-03T22:39:37;19.10;81.80
22212;DHT22;11275;52.488;13.462;2022-09-03T22:50:44;19.10;82.00
22212;DHT22;11275;52.488;13.462;2022-09-03T22:56:10;19.00;82.00
22212;DHT22;11275;52.488;13.462;2022-09-03T22:59:04;19.00;82.20
22212;DHT22;11275;52.488;13.462;2022-09-03T23:04:16;19.00;82.60
22212;DHT22;11275;52.488;13.462;2022-09-03T23:07:32;18.90;82.60
22212;DHT22;11275;52.488;13.462;2022-09-03T23:10:08;18.80;82.20
22212;DHT22;11275;52.488;13.462;2022-09-03T23:15:30;18.80;82.60
22212;DHT22;11275;52.488;13.462;2022-09-03T23:18:11;18.80;83.10
22212;DHT22;11275;52.488;13.462;2022-09-03T23:20:42;18.70;83.00